Flight Track Log - Related Links

Times and Time Zones

All times are in EDT time to prevent confusion due to time zone crossing. See the SWA621 flight status page for this flight to view local times or setup timezone preferences in your user account.

Time Position Orientation Groundspeed Altitude Reporting Facility
EDT Latitude Longitude Course Direction KTS MPH feet Rate Location/Type
Thu 09:38:13 AM 27.9667 -82.5500 180° South 168 193 700  Level Tampa TRACON
Thu 09:38:25 AM 27.9500 -82.5500 180° South 166 191 1,200 2,167 Climbing Tampa TRACON
Thu 09:39:25 AM 27.9000 -82.5667 196° South 205 236 3,300 2,514 Climbing Tampa TRACON
Thu 09:41:24 AM 27.9633 -82.6508 310° West 236 272 8,700 2,619 Climbing Miami Center
Thu 09:42:26 AM 28.0383 -82.6747 344° North 273 314 11,200 2,328 Climbing Miami Center
Thu 09:43:38 AM 28.1539 -82.7067 346° North 324 373 13,900 2,211 Climbing Jacksonville Center
Thu 09:44:39 AM 28.2522 -82.7394 344° North 348 400 16,100 2,400 Climbing Jacksonville Center
Thu 09:45:38 AM 28.3522 -82.7700 345° North 364 419 18,700 2,017 Climbing Jacksonville Center
Thu 09:46:38 AM 28.4608 -82.7958 348° North 376 433 20,100 1,200 Climbing Jacksonville Center
Thu 09:47:38 AM 28.5714 -82.8144 352° North 388 447 21,100 1,050 Climbing Jacksonville Center
Thu 09:48:38 AM 28.6653 -82.8736 331° Northwest 388 447 22,200 1,000 Climbing Jacksonville Center
Thu 09:49:38 AM 28.7550 -82.9400 327° Northwest 388 447 23,100 973 Climbing Jacksonville Center
Thu 09:51:43 AM 28.9442 -83.0678 329° Northwest 396 456 25,200 1,033 Climbing Miami Center
Thu 09:52:38 AM 29.0408 -83.1419 326° Northwest 404 465 26,200 1,043 Climbing Jacksonville Center
Thu 09:53:38 AM 29.1389 -83.2111 328° Northwest 409 471 27,200 950 Climbing Jacksonville Center
Thu 09:54:38 AM 29.2389 -83.2781 330° Northwest 409 471 28,100 950 Climbing Jacksonville Center
Thu 09:55:38 AM 29.3347 -83.3453 329° Northwest 409 471 29,100 850 Climbing Jacksonville Center
Thu 09:56:38 AM 29.4344 -83.4147 329° Northwest 409 471 29,800 1,350 Climbing Jacksonville Center
Thu 09:57:38 AM 29.5364 -83.4844 329° Northwest 414 476 31,800 1,850 Climbing Jacksonville Center
Thu 09:58:38 AM 29.6383 -83.5592 328° Northwest 414 476 33,500 1,983 Climbing Jacksonville Center
Thu 09:59:39 AM 29.7361 -83.6269 329° Northwest 419 482 35,800 1,500 Climbing Jacksonville Center
Thu 10:01:00 AM 29.8567 -83.7124 329° Northwest  Level FlightAware Approximate
Thu 10:01:38 AM 29.9275 -83.7650 329° Northwest 409 471 38,000  Level Jacksonville Center
Thu 10:02:39 AM 30.0061 -83.8519 316° Northwest 404 465 38,000  Level Jacksonville Center
Thu 10:03:38 AM 30.0847 -83.9439 315° West 399 459 38,000  Level Jacksonville Center
Thu 10:04:39 AM 30.1633 -84.0336 315° West 394 453 38,000  Level Jacksonville Center
Thu 10:05:38 AM 30.2336 -84.1117 316° Northwest 394 453 38,000  Level Jacksonville Center
Thu 10:06:38 AM 30.3100 -84.2017 315° West 394 453 38,000  Level Jacksonville Center
Thu 10:08:39 AM 30.4686 -84.3797 316° Northwest 389 448 38,000  Level Jacksonville Center
Thu 10:09:38 AM 30.5531 -84.4775 315° West 394 453 38,000  Level Jacksonville Center
Thu 10:10:38 AM 30.6231 -84.5558 316° Northwest 394 453 38,000  Level Jacksonville Center
Thu 10:12:39 AM 30.7792 -84.7375 318° Northwest 394 453 38,000  Level Jacksonville Center
Thu 10:13:38 AM 30.8572 -84.8308 314° West 394 453 38,000  Level Jacksonville Center
Thu 10:15:39 AM 31.0131 -85.0111 319° Northwest 394 453 38,000  Level Jacksonville Center
Thu 10:16:38 AM 31.0969 -85.1125 314° West 394 453 38,000  Level Jacksonville Center
Thu 10:17:38 AM 31.1706 -85.1919 317° Northwest 394 453 38,000  Level Jacksonville Center
Thu 10:18:38 AM 31.2483 -85.2861 314° West 399 459 38,000  Level Jacksonville Center
Thu 10:20:20 AM 31.3878 -85.4544 314° West 399 459 38,000  Level Atlanta Center
Thu 10:21:20 AM 31.4681 -85.5483 315° West 399 459 38,000  Level Atlanta Center
Thu 10:22:20 AM 31.5464 -85.6397 315° West 399 459 38,000  Level Atlanta Center
Thu 10:24:20 AM 31.7044 -85.8281 315° West 406 467 38,000  Level Atlanta Center
Thu 10:25:20 AM 31.7844 -85.9250 314° West 406 467 38,000  Level Atlanta Center
Thu 10:27:20 AM 31.9381 -86.1117 314° West 401 461 38,000  Level Atlanta Center
Thu 10:28:20 AM 32.0136 -86.2089 313° West 401 461 38,000  Level Atlanta Center
Thu 10:29:20 AM 32.0789 -86.2867 315° West 401 461 38,000  Level Atlanta Center
Thu 10:30:20 AM 32.1667 -86.3919 315° West 407 468 38,000  Level Atlanta Center
Thu 10:31:20 AM 32.2483 -86.4872 315° West 407 468 38,000  Level Atlanta Center
Thu 10:32:20 AM 32.3278 -86.5831 314° West 407 468 38,000  Level Atlanta Center
Thu 10:33:20 AM 32.4092 -86.6811 315° West 407 468 38,000  Level Atlanta Center
Thu 10:34:20 AM 32.4864 -86.7769 314° West 407 468 38,000  Level Atlanta Center
Thu 10:35:20 AM 32.5656 -86.8756 314° West 407 468 38,000  Level Atlanta Center
Thu 10:36:20 AM 32.6406 -86.9717 313° West 407 468 38,000  Level Atlanta Center
Thu 10:37:20 AM 32.7239 -87.0658 316° Northwest 406 467 38,000  Level Atlanta Center
Thu 10:38:20 AM 32.8008 -87.1600 314° West 406 467 38,000  Level Atlanta Center
Thu 10:39:20 AM 32.8778 -87.2542 314° West 406 467 38,000  Level Atlanta Center
Thu 10:41:01 AM 33.0058 -87.4192 313° West 403 464 38,000  Level Memphis Center
Thu 10:42:03 AM 33.0836 -87.5169 314° West 404 465 38,000  Level Memphis Center
Thu 10:43:05 AM 33.1606 -87.6139 313° West 404 465 38,000  Level Memphis Center
Thu 10:45:09 AM 33.3300 -87.8275 314° West 403 464 38,000  Level Memphis Center
Thu 10:46:11 AM 33.4072 -87.9236 314° West 403 464 38,000  Level Memphis Center
Thu 10:49:18 AM 33.6364 -88.2156 314° West 401 461 38,000  Level Memphis Center
Thu 10:50:00 AM 33.6894 -88.2727 314° West  Level FlightAware Approximate
Thu 10:51:22 AM 33.8064 -88.4336 313° West 402 463 38,000  Level Memphis Center
Thu 10:52:24 AM 33.8825 -88.5322 313° West 402 463 38,000  Level Memphis Center
Thu 10:53:26 AM 33.9589 -88.6311 313° West 402 463 38,000  Level Memphis Center
Thu 10:54:28 AM 34.0344 -88.7294 313° West 402 463 38,000  Level Memphis Center
Thu 10:55:30 AM 34.1200 -88.8403 313° West 401 461 38,000  Level Memphis Center
Thu 10:56:32 AM 34.1942 -88.9381 313° West 399 459 38,000  Level Memphis Center
Thu 10:57:00 AM 34.2044 -88.9190 314° West  Level FlightAware Approximate
Thu 10:57:34 AM 34.2694 -89.0344 313° West 398 458 38,000  Level Memphis Center
Thu 10:58:36 AM 34.3419 -89.1322 312° West 396 456 38,000  Level Memphis Center
Thu 10:59:38 AM 34.4161 -89.2283 313° West 394 453 38,000  Level Memphis Center
Thu 11:02:00 AM 34.5996 -89.4295 318° Northwest  Level FlightAware Approximate
Thu 11:02:01 AM 34.5892 -89.4647 318° Northwest 385 443 38,000  Level Kansas City Center
Thu 11:02:45 AM 34.6497 -89.5375 315° West 392 451 38,000  Level Memphis Center
Thu 11:03:47 AM 34.7225 -89.6344 312° West 392 451 38,000  Level Memphis Center
Thu 11:04:49 AM 34.8022 -89.7400 313° West 392 451 38,000  Level Memphis Center
Thu 11:05:51 AM 34.8678 -89.8286 312° West 392 451 38,000  Level Memphis Center
Thu 11:06:53 AM 34.9506 -89.9367 313° West 392 451 38,000  Level Memphis Center
Thu 11:07:55 AM 35.0231 -90.0347 312° West 391 450 38,000  Level Memphis Center
Thu 11:08:57 AM 35.0947 -90.1317 312° West 390 449 38,000  Level Memphis Center
Thu 11:09:59 AM 35.1664 -90.2294 312° West 390 449 38,000  Level Memphis Center
Thu 11:11:01 AM 35.2542 -90.3478 312° West 390 449 38,000  Level Memphis Center
Thu 11:12:03 AM 35.3267 -90.4458 312° West 390 449 38,000  Level Memphis Center
Thu 11:13:05 AM 35.3975 -90.5447 311° West 390 449 38,000  Level Memphis Center
Thu 11:15:10 AM 35.5397 -90.7403 312° West 387 445 38,000  Level Memphis Center
Thu 11:16:12 AM 35.6267 -90.8572 312° West 387 445 38,000  Level Memphis Center
Thu 11:17:14 AM 35.6969 -90.9564 311° West 387 445 38,000  Level Memphis Center
Thu 11:18:16 AM 35.7692 -91.0547 312° West 387 445 38,000  Level Memphis Center
Thu 11:20:20 AM 35.9406 -91.2425 318° Northwest 389 448 38,000  Level Memphis Center
Thu 11:21:22 AM 36.0222 -91.3311 319° Northwest 391 450 38,000  Level Memphis Center
Thu 11:23:26 AM 36.1844 -91.5136 318° Northwest 392 451 38,000  Level Memphis Center
Thu 11:24:28 AM 36.2636 -91.6036 318° Northwest 392 451 38,000  Level Memphis Center
Thu 11:25:30 AM 36.3589 -91.7103 318° Northwest 390 449 38,000  Level Memphis Center
Thu 11:26:32 AM 36.4386 -91.8000 318° Northwest 390 449 38,000  Level Memphis Center
Thu 11:27:35 AM 36.5117 -91.8828 318° Northwest 387 445 38,000  Level Memphis Center
Thu 11:28:37 AM 36.5911 -91.9708 318° Northwest 384 442 38,000  Level Memphis Center
Thu 11:30:41 AM 36.7664 -92.1725 317° Northwest 385 443 38,000  Level Memphis Center
Thu 11:31:43 AM 36.8456 -92.2642 317° Northwest 385 443 38,000 -127 Level Memphis Center
Thu 11:33:03 AM 36.9408 -92.3736 317° Northwest 385 443 37,700 -323 Descending Kansas City Center
Thu 11:34:49 AM 37.0858 -92.5411 317° Northwest 388 447 37,000 -250 Descending Memphis Center
Thu 11:35:51 AM 37.1667 -92.6358 317° Northwest 390 449 37,000  Level Memphis Center
Thu 11:37:11 AM 37.2814 -92.7675 318° Northwest 396 456 37,000  Level Kansas City Center
Thu 11:38:13 AM 37.3611 -92.8608 317° Northwest 395 455 37,000  Level Kansas City Center
Thu 11:39:15 AM 37.4411 -92.9550 317° Northwest 392 451 37,000  Level Kansas City Center
Thu 11:40:17 AM 37.5203 -93.0475 317° Northwest 392 451 37,000  Level Kansas City Center
Thu 11:41:19 AM 37.6139 -93.1589 317° Northwest 386 444 37,000 -242 Level Kansas City Center
Thu 11:42:21 AM 37.6925 -93.2522 317° Northwest 386 444 36,500 -677 Descending Kansas City Center
Thu 11:43:23 AM 37.7714 -93.3456 317° Northwest 386 444 35,600 -1,536 Descending Kansas City Center
Thu 11:44:26 AM 37.8506 -93.4411 316° Northwest 386 444 33,300 -2,352 Descending Kansas City Center
Thu 11:45:28 AM 37.9308 -93.5369 317° Northwest 391 450 30,700 -2,371 Descending Kansas City Center
Thu 11:46:30 AM 38.0086 -93.6283 317° Northwest 386 444 28,400 -2,129 Descending Kansas City Center
Thu 11:47:32 AM 38.0833 -93.7181 317° Northwest 378 435 26,300 -2,105 Descending Kansas City Center
Thu 11:50:38 AM 38.3681 -93.9019 322° Northwest 359 413 19,700 -2,177 Descending Kansas City Center
Thu 11:51:40 AM 38.4575 -93.9525 336° Northwest 357 411 17,300 -2,226 Descending Kansas City Center
Thu 11:52:42 AM 38.5517 -94.0061 336° Northwest 349 402 15,100 -2,177 Descending Kansas City Center
Thu 11:53:44 AM 38.6425 -94.0614 335° Northwest 341 392 12,800 -1,387 Descending Kansas City Center
Thu 11:55:48 AM 38.7914 -94.1967 325° Northwest 329 379 10,800 -935 Descending Kansas City Center
Thu 11:56:00 AM 38.8406 -94.2572 322° Northwest  Level FlightAware Approximate
Thu 11:56:50 AM 38.8581 -94.2756 317° Northwest 302 348 9,900  Level Kansas City Center
Thu 11:57:52 AM 38.9083 -94.3472 312° West 275 316 8,900 -906 Descending Kansas City Center
Thu 12:00:02 PM 39.0000 -94.4833 311° West 215 247 7,000 -936 Descending Kansas City TRACON
Thu 12:02:02 PM 39.0833 -94.6167 309° West 228 262 5,000 -806 Descending Kansas City TRACON
Thu 12:03:08 PM 39.1333 -94.6833 314° West 202 232 4,500 -672 Descending Kansas City TRACON
Thu 12:04:07 PM 39.1725 -94.7167 327° Northwest 191 220 3,600 -885 Descending Kansas City Center
Thu 12:06:11 PM 39.2603 -94.7397 349° North 147 169 1,800 -839 Descending Kansas City Center
Thu 12:07:13 PM 39.2950 -94.7283 14° North 127 146 1,000 -774 Descending Kansas City Center

Login

Don't have an account? Register now (free) for customized features, flight alerts, and more!